sensor_id;sensor_type;location;lat;lon;timestamp;P1;durP1;ratioP1;P2;durP2;ratioP2
47429;SDS011;33181;49.246;7.372;2022-07-10T00:00:36;3.67;;;3.37;;
47429;SDS011;33181;49.246;7.372;2022-07-10T00:03:02;5.07;;;3.27;;
47429;SDS011;33181;49.246;7.372;2022-07-10T00:05:30;4.73;;;3.30;;
47429;SDS011;33181;49.246;7.372;2022-07-10T00:07:56;8.27;;;3.57;;
47429;SDS011;33181;49.246;7.372;2022-07-10T00:10:22;7.57;;;3.50;;
47429;SDS011;33181;49.246;7.372;2022-07-10T00:12:49;3.70;;;3.13;;
47429;SDS011;33181;49.246;7.372;2022-07-10T00:15:16;3.43;;;3.13;;
47429;SDS011;33181;49.246;7.372;2022-07-10T00:17:43;3.63;;;3.23;;
47429;SDS011;33181;49.246;7.372;2022-07-10T00:20:10;5.23;;;3.10;;
47429;SDS011;33181;49.246;7.372;2022-07-10T00:22:38;4.00;;;3.47;;
47429;SDS011;33181;49.246;7.372;2022-07-10T00:25:04;3.77;;;3.27;;
47429;SDS011;33181;49.246;7.372;2022-07-10T00:27:33;7.93;;;3.53;;
47429;SDS011;33181;49.246;7.372;2022-07-10T00:29:58;5.10;;;3.30;;
47429;SDS011;33181;49.246;7.372;2022-07-10T00:32:24;5.00;;;3.67;;
47429;SDS011;33181;49.246;7.372;2022-07-10T00:34:50;5.70;;;3.03;;
47429;SDS011;33181;49.246;7.372;2022-07-10T00:37:16;9.13;;;3.17;;
47429;SDS011;33181;49.246;7.372;2022-07-10T00:39:43;4.10;;;3.23;;
47429;SDS011;33181;49.246;7.372;2022-07-10T00:42:13;7.57;;;3.30;;
47429;SDS011;33181;49.246;7.372;2022-07-10T00:44:40;5.87;;;3.20;;
47429;SDS011;33181;49.246;7.372;2022-07-10T00:47:07;3.80;;;2.90;;
47429;SDS011;33181;49.246;7.372;2022-07-10T00:49:34;5.53;;;3.10;;
47429;SDS011;33181;49.246;7.372;2022-07-10T00:52:03;5.13;;;3.43;;
47429;SDS011;33181;49.246;7.372;2022-07-10T00:54:35;3.83;;;3.30;;
47429;SDS011;33181;49.246;7.372;2022-07-10T00:57:03;4.27;;;3.10;;
47429;SDS011;33181;49.246;7.372;2022-07-10T00:59:33;4.50;;;3.10;;
47429;SDS011;33181;49.246;7.372;2022-07-10T01:02:01;5.27;;;3.10;;
47429;SDS011;33181;49.246;7.372;2022-07-10T01:04:28;3.73;;;3.00;;
47429;SDS011;33181;49.246;7.372;2022-07-10T01:06:55;5.63;;;3.20;;
47429;SDS011;33181;49.246;7.372;2022-07-10T01:09:21;4.80;;;3.13;;
47429;SDS011;33181;49.246;7.372;2022-07-10T01:11:47;7.50;;;3.20;;
47429;SDS011;33181;49.246;7.372;2022-07-10T01:14:14;7.63;;;3.63;;
47429;SDS011;33181;49.246;7.372;2022-07-10T01:16:41;5.60;;;3.53;;
47429;SDS011;33181;49.246;7.372;2022-07-10T01:19:07;10.17;;;3.00;;
47429;SDS011;33181;49.246;7.372;2022-07-10T01:21:36;3.20;;;2.87;;
47429;SDS011;33181;49.246;7.372;2022-07-10T01:24:06;9.43;;;3.20;;
47429;SDS011;33181;49.246;7.372;2022-07-10T01:26:34;5.43;;;3.30;;
47429;SDS011;33181;49.246;7.372;2022-07-10T01:29:02;5.63;;;3.53;;
47429;SDS011;33181;49.246;7.372;2022-07-10T01:31:31;7.37;;;3.30;;
47429;SDS011;33181;49.246;7.372;2022-07-10T01:33:58;6.17;;;3.20;;
47429;SDS011;33181;49.246;7.372;2022-07-10T01:36:26;5.00;;;2.97;;
47429;SDS011;33181;49.246;7.372;2022-07-10T01:38:54;5.47;;;3.43;;
47429;SDS011;33181;49.246;7.372;2022-07-10T01:41:22;3.83;;;3.20;;
47429;SDS011;33181;49.246;7.372;2022-07-10T01:43:48;7.10;;;3.27;;
47429;SDS011;33181;49.246;7.372;2022-07-10T01:46:15;4.00;;;3.30;;
47429;SDS011;33181;49.246;7.372;2022-07-10T01:48:41;6.93;;;4.10;;
47429;SDS011;33181;49.246;7.372;2022-07-10T01:51:08;6.70;;;3.40;;
47429;SDS011;33181;49.246;7.372;2022-07-10T01:53:35;5.60;;;3.30;;
47429;SDS011;33181;49.246;7.372;2022-07-10T01:56:03;4.57;;;3.20;;
47429;SDS011;33181;49.246;7.372;2022-07-10T01:58:31;7.97;;;3.70;;
47429;SDS011;33181;49.246;7.372;2022-07-10T02:00:57;5.20;;;3.67;;
47429;SDS011;33181;49.246;7.372;2022-07-10T02:03:22;5.70;;;3.30;;
47429;SDS011;33181;49.246;7.372;2022-07-10T02:06:07;6.17;;;4.00;;
47429;SDS011;33181;49.246;7.372;2022-07-10T02:08:32;6.13;;;3.40;;
47429;SDS011;33181;49.246;7.372;2022-07-10T02:10:58;4.93;;;3.63;;
47429;SDS011;33181;49.246;7.372;2022-07-10T02:13:24;8.07;;;3.50;;
47429;SDS011;33181;49.246;7.372;2022-07-10T02:15:52;4.67;;;3.30;;
47429;SDS011;33181;49.246;7.372;2022-07-10T02:18:21;4.20;;;3.60;;
47429;SDS011;33181;49.246;7.372;2022-07-10T02:20:48;6.63;;;3.60;;
47429;SDS011;33181;49.246;7.372;2022-07-10T02:23:14;7.10;;;3.63;;
47429;SDS011;33181;49.246;7.372;2022-07-10T02:25:40;6.93;;;3.73;;
47429;SDS011;33181;49.246;7.372;2022-07-10T02:28:07;5.13;;;3.77;;
47429;SDS011;33181;49.246;7.372;2022-07-10T02:30:33;5.27;;;3.40;;
47429;SDS011;33181;49.246;7.372;2022-07-10T02:32:59;6.13;;;3.90;;
47429;SDS011;33181;49.246;7.372;2022-07-10T02:35:24;5.17;;;3.90;;
47429;SDS011;33181;49.246;7.372;2022-07-10T02:37:50;4.40;;;3.60;;
47429;SDS011;33181;49.246;7.372;2022-07-10T02:40:16;5.10;;;3.67;;
47429;SDS011;33181;49.246;7.372;2022-07-10T02:42:42;5.57;;;3.70;;
47429;SDS011;33181;49.246;7.372;2022-07-10T02:45:08;7.63;;;3.67;;
47429;SDS011;33181;49.246;7.372;2022-07-10T02:47:34;4.77;;;3.87;;
47429;SDS011;33181;49.246;7.372;2022-07-10T02:49:59;5.77;;;3.83;;
47429;SDS011;33181;49.246;7.372;2022-07-10T02:52:25;4.80;;;3.50;;
47429;SDS011;33181;49.246;7.372;2022-07-10T02:54:51;4.43;;;3.77;;
47429;SDS011;33181;49.246;7.372;2022-07-10T02:57:18;4.63;;;3.63;;
47429;SDS011;33181;49.246;7.372;2022-07-10T02:59:43;4.10;;;3.70;;
47429;SDS011;33181;49.246;7.372;2022-07-10T03:02:09;5.40;;;3.90;;
47429;SDS011;33181;49.246;7.372;2022-07-10T03:04:35;6.27;;;4.30;;
47429;SDS011;33181;49.246;7.372;2022-07-10T03:07:01;5.17;;;3.97;;
47429;SDS011;33181;49.246;7.372;2022-07-10T03:09:27;4.93;;;4.37;;
47429;SDS011;33181;49.246;7.372;2022-07-10T03:11:52;5.93;;;4.40;;
47429;SDS011;33181;49.246;7.372;2022-07-10T03:14:18;6.13;;;4.93;;
47429;SDS011;33181;49.246;7.372;2022-07-10T03:16:44;7.13;;;4.50;;
47429;SDS011;33181;49.246;7.372;2022-07-10T03:19:10;5.50;;;4.83;;
47429;SDS011;33181;49.246;7.372;2022-07-10T03:21:35;6.10;;;5.00;;
47429;SDS011;33181;49.246;7.372;2022-07-10T03:24:01;5.53;;;5.03;;
47429;SDS011;33181;49.246;7.372;2022-07-10T03:26:27;7.33;;;5.37;;
47429;SDS011;33181;49.246;7.372;2022-07-10T03:28:54;6.83;;;4.97;;
47429;SDS011;33181;49.246;7.372;2022-07-10T03:31:21;6.70;;;5.50;;
47429;SDS011;33181;49.246;7.372;2022-07-10T03:33:47;9.13;;;5.70;;
47429;SDS011;33181;49.246;7.372;2022-07-10T03:36:13;8.63;;;5.97;;
47429;SDS011;33181;49.246;7.372;2022-07-10T03:38:39;6.70;;;5.67;;
47429;SDS011;33181;49.246;7.372;2022-07-10T03:41:05;6.00;;;5.40;;
47429;SDS011;33181;49.246;7.372;2022-07-10T03:43:31;6.23;;;5.63;;
47429;SDS011;33181;49.246;7.372;2022-07-10T03:45:57;7.67;;;6.47;;
47429;SDS011;33181;49.246;7.372;2022-07-10T03:48:23;8.47;;;6.40;;
47429;SDS011;33181;49.246;7.372;2022-07-10T03:50:50;8.67;;;6.43;;
47429;SDS011;33181;49.246;7.372;2022-07-10T03:53:16;7.93;;;6.13;;
47429;SDS011;33181;49.246;7.372;2022-07-10T03:55:43;10.50;;;6.03;;
47429;SDS011;33181;49.246;7.372;2022-07-10T03:58:09;6.70;;;5.83;;
47429;SDS011;33181;49.246;7.372;2022-07-10T04:00:35;7.50;;;6.30;;
47429;SDS011;33181;49.246;7.372;2022-07-10T04:03:04;9.07;;;6.10;;
47429;SDS011;33181;49.246;7.372;2022-07-10T04:05:31;9.10;;;6.00;;
47429;SDS011;33181;49.246;7.372;2022-07-10T04:07:58;6.73;;;6.03;;
47429;SDS011;33181;49.246;7.372;2022-07-10T04:10:26;9.10;;;6.30;;
47429;SDS011;33181;49.246;7.372;2022-07-10T04:12:53;8.37;;;5.83;;
47429;SDS011;33181;49.246;7.372;2022-07-10T04:15:20;7.10;;;5.03;;
47429;SDS011;33181;49.246;7.372;2022-07-10T04:17:47;6.40;;;5.60;;
47429;SDS011;33181;49.246;7.372;2022-07-10T04:20:14;8.33;;;5.63;;
47429;SDS011;33181;49.246;7.372;2022-07-10T04:22:41;6.03;;;5.13;;
47429;SDS011;33181;49.246;7.372;2022-07-10T04:25:07;7.17;;;5.10;;
47429;SDS011;33181;49.246;7.372;2022-07-10T04:27:34;5.87;;;5.00;;
47429;SDS011;33181;49.246;7.372;2022-07-10T04:30:00;5.30;;;4.10;;
47429;SDS011;33181;49.246;7.372;2022-07-10T04:32:28;7.07;;;4.70;;
47429;SDS011;33181;49.246;7.372;2022-07-10T04:34:54;12.10;;;4.80;;
47429;SDS011;33181;49.246;7.372;2022-07-10T04:37:20;6.43;;;4.10;;
47429;SDS011;33181;49.246;7.372;2022-07-10T04:39:46;10.23;;;4.30;;
47429;SDS011;33181;49.246;7.372;2022-07-10T04:42:12;6.03;;;3.73;;
47429;SDS011;33181;49.246;7.372;2022-07-10T04:44:37;5.73;;;4.33;;
47429;SDS011;33181;49.246;7.372;2022-07-10T04:47:04;5.00;;;3.70;;
47429;SDS011;33181;49.246;7.372;2022-07-10T04:49:30;4.20;;;3.43;;
47429;SDS011;33181;49.246;7.372;2022-07-10T04:51:57;5.23;;;3.90;;
47429;SDS011;33181;49.246;7.372;2022-07-10T04:54:23;5.27;;;3.83;;
47429;SDS011;33181;49.246;7.372;2022-07-10T04:56:48;6.60;;;3.50;;
47429;SDS011;33181;49.246;7.372;2022-07-10T04:59:14;4.30;;;3.43;;
47429;SDS011;33181;49.246;7.372;2022-07-10T05:01:40;6.63;;;3.60;;
47429;SDS011;33181;49.246;7.372;2022-07-10T05:04:06;6.20;;;3.57;;
47429;SDS011;33181;49.246;7.372;2022-07-10T05:06:32;4.33;;;3.63;;
47429;SDS011;33181;49.246;7.372;2022-07-10T05:08:58;7.10;;;3.30;;
47429;SDS011;33181;49.246;7.372;2022-07-10T05:11:24;5.03;;;3.23;;
47429;SDS011;33181;49.246;7.372;2022-07-10T05:13:50;5.33;;;3.23;;
47429;SDS011;33181;49.246;7.372;2022-07-10T05:16:17;3.13;;;2.83;;
47429;SDS011;33181;49.246;7.372;2022-07-10T05:18:43;5.70;;;2.93;;
47429;SDS011;33181;49.246;7.372;2022-07-10T05:21:09;6.83;;;3.10;;
47429;SDS011;33181;49.246;7.372;2022-07-10T05:23:37;7.73;;;3.33;;
47429;SDS011;33181;49.246;7.372;2022-07-10T05:26:04;5.50;;;3.13;;
47429;SDS011;33181;49.246;7.372;2022-07-10T05:28:30;5.20;;;3.23;;
47429;SDS011;33181;49.246;7.372;2022-07-10T05:30:56;6.83;;;3.37;;
47429;SDS011;33181;49.246;7.372;2022-07-10T05:33:22;4.27;;;3.00;;
47429;SDS011;33181;49.246;7.372;2022-07-10T05:35:48;3.20;;;2.60;;
47429;SDS011;33181;49.246;7.372;2022-07-10T05:38:14;4.23;;;2.60;;
47429;SDS011;33181;49.246;7.372;2022-07-10T05:40:39;4.30;;;2.60;;
47429;SDS011;33181;49.246;7.372;2022-07-10T05:43:05;5.47;;;2.63;;
47429;SDS011;33181;49.246;7.372;2022-07-10T05:45:31;5.23;;;2.73;;
47429;SDS011;33181;49.246;7.372;2022-07-10T05:47:57;4.33;;;2.63;;
47429;SDS011;33181;49.246;7.372;2022-07-10T05:50:22;6.27;;;2.47;;
47429;SDS011;33181;49.246;7.372;2022-07-10T05:52:48;3.90;;;2.50;;
47429;SDS011;33181;49.246;7.372;2022-07-10T05:55:14;4.40;;;2.50;;
47429;SDS011;33181;49.246;7.372;2022-07-10T05:57:40;4.33;;;2.50;;
47429;SDS011;33181;49.246;7.372;2022-07-10T06:00:06;5.90;;;2.50;;
47429;SDS011;33181;49.246;7.372;2022-07-10T06:02:33;3.87;;;2.30;;
47429;SDS011;33181;49.246;7.372;2022-07-10T06:04:59;5.23;;;2.90;;
47429;SDS011;33181;49.246;7.372;2022-07-10T06:07:27;6.73;;;2.50;;
47429;SDS011;33181;49.246;7.372;2022-07-10T06:09:54;5.50;;;2.83;;
47429;SDS011;33181;49.246;7.372;2022-07-10T06:12:20;6.23;;;2.53;;
47429;SDS011;33181;49.246;7.372;2022-07-10T06:14:46;4.33;;;2.27;;
47429;SDS011;33181;49.246;7.372;2022-07-10T06:17:12;5.63;;;2.30;;
47429;SDS011;33181;49.246;7.372;2022-07-10T06:19:37;5.40;;;2.77;;
47429;SDS011;33181;49.246;7.372;2022-07-10T06:22:03;2.73;;;2.10;;
47429;SDS011;33181;49.246;7.372;2022-07-10T06:24:48;8.23;;;2.47;;
47429;SDS011;33181;49.246;7.372;2022-07-10T06:27:14;4.33;;;2.33;;
47429;SDS011;33181;49.246;7.372;2022-07-10T06:29:40;4.10;;;2.10;;
47429;SDS011;33181;49.246;7.372;2022-07-10T06:32:06;5.03;;;2.33;;
47429;SDS011;33181;49.246;7.372;2022-07-10T06:34:32;4.60;;;2.30;;
47429;SDS011;33181;49.246;7.372;2022-07-10T06:36:58;4.07;;;2.30;;
47429;SDS011;33181;49.246;7.372;2022-07-10T06:39:24;5.03;;;2.37;;
47429;SDS011;33181;49.246;7.372;2022-07-10T06:41:50;3.73;;;2.20;;
47429;SDS011;33181;49.246;7.372;2022-07-10T06:44:15;5.30;;;2.20;;
47429;SDS011;33181;49.246;7.372;2022-07-10T06:46:41;4.73;;;2.03;;
47429;SDS011;33181;49.246;7.372;2022-07-10T06:49:27;5.40;;;2.10;;
47429;SDS011;33181;49.246;7.372;2022-07-10T06:51:53;3.60;;;2.10;;
47429;SDS011;33181;49.246;7.372;2022-07-10T06:54:19;3.40;;;2.00;;
47429;SDS011;33181;49.246;7.372;2022-07-10T06:56:44;6.70;;;2.73;;
47429;SDS011;33181;49.246;7.372;2022-07-10T06:59:10;3.00;;;1.70;;
47429;SDS011;33181;49.246;7.372;2022-07-10T07:01:36;3.23;;;2.00;;
47429;SDS011;33181;49.246;7.372;2022-07-10T07:04:02;3.30;;;2.00;;
47429;SDS011;33181;49.246;7.372;2022-07-10T07:06:28;4.10;;;1.90;;
47429;SDS011;33181;49.246;7.372;2022-07-10T07:08:53;3.00;;;2.13;;
47429;SDS011;33181;49.246;7.372;2022-07-10T07:11:19;3.43;;;1.90;;
47429;SDS011;33181;49.246;7.372;2022-07-10T07:13:45;3.67;;;2.13;;
47429;SDS011;33181;49.246;7.372;2022-07-10T07:16:11;4.30;;;2.27;;
47429;SDS011;33181;49.246;7.372;2022-07-10T07:18:39;6.63;;;2.43;;
47429;SDS011;33181;49.246;7.372;2022-07-10T07:21:12;6.03;;;2.33;;
47429;SDS011;33181;49.246;7.372;2022-07-10T07:23:56;3.90;;;2.10;;
47429;SDS011;33181;49.246;7.372;2022-07-10T07:26:22;4.10;;;1.90;;
47429;SDS011;33181;49.246;7.372;2022-07-10T07:28:48;20.47;;;2.80;;
47429;SDS011;33181;49.246;7.372;2022-07-10T07:31:13;4.23;;;1.90;;
47429;SDS011;33181;49.246;7.372;2022-07-10T07:33:42;4.40;;;1.83;;
47429;SDS011;33181;49.246;7.372;2022-07-10T07:36:08;2.27;;;1.70;;
47429;SDS011;33181;49.246;7.372;2022-07-10T07:38:34;2.77;;;1.70;;
47429;SDS011;33181;49.246;7.372;2022-07-10T07:41:00;6.70;;;2.17;;
47429;SDS011;33181;49.246;7.372;2022-07-10T07:43:26;4.10;;;2.10;;
47429;SDS011;33181;49.246;7.372;2022-07-10T07:45:52;3.37;;;1.83;;
47429;SDS011;33181;49.246;7.372;2022-07-10T07:48:18;2.63;;;1.90;;
47429;SDS011;33181;49.246;7.372;2022-07-10T07:50:43;5.33;;;1.73;;
47429;SDS011;33181;49.246;7.372;2022-07-10T07:53:09;4.30;;;1.97;;
47429;SDS011;33181;49.246;7.372;2022-07-10T07:55:37;7.83;;;1.70;;
47429;SDS011;33181;49.246;7.372;2022-07-10T07:58:03;4.10;;;1.90;;
47429;SDS011;33181;49.246;7.372;2022-07-10T08:00:29;3.00;;;1.73;;
47429;SDS011;33181;49.246;7.372;2022-07-10T08:02:55;7.17;;;2.27;;
47429;SDS011;33181;49.246;7.372;2022-07-10T08:05:23;3.00;;;1.97;;
47429;SDS011;33181;49.246;7.372;2022-07-10T08:07:50;3.47;;;2.03;;
47429;SDS011;33181;49.246;7.372;2022-07-10T08:10:19;3.97;;;2.13;;
47429;SDS011;33181;49.246;7.372;2022-07-10T08:12:47;4.70;;;1.83;;
47429;SDS011;33181;49.246;7.372;2022-07-10T08:15:15;4.47;;;2.10;;
47429;SDS011;33181;49.246;7.372;2022-07-10T08:17:46;2.37;;;1.60;;
47429;SDS011;33181;49.246;7.372;2022-07-10T08:20:18;4.30;;;1.90;;
47429;SDS011;33181;49.246;7.372;2022-07-10T08:22:45;2.43;;;1.50;;
47429;SDS011;33181;49.246;7.372;2022-07-10T08:25:11;4.00;;;1.70;;
47429;SDS011;33181;49.246;7.372;2022-07-10T08:27:37;2.53;;;1.67;;
47429;SDS011;33181;49.246;7.372;2022-07-10T08:30:04;4.77;;;1.70;;
47429;SDS011;33181;49.246;7.372;2022-07-10T08:32:31;3.50;;;1.60;;
47429;SDS011;33181;49.246;7.372;2022-07-10T08:34:57;3.73;;;1.50;;
47429;SDS011;33181;49.246;7.372;2022-07-10T08:37:24;4.50;;;1.60;;
47429;SDS011;33181;49.246;7.372;2022-07-10T08:39:50;4.67;;;1.80;;
47429;SDS011;33181;49.246;7.372;2022-07-10T08:42:16;2.80;;;1.50;;
47429;SDS011;33181;49.246;7.372;2022-07-10T08:44:43;3.60;;;1.70;;
47429;SDS011;33181;49.246;7.372;2022-07-10T08:47:09;2.03;;;1.40;;
47429;SDS011;33181;49.246;7.372;2022-07-10T08:49:40;3.10;;;1.70;;
47429;SDS011;33181;49.246;7.372;2022-07-10T08:54:49;1.87;;;1.50;;
47429;SDS011;33181;49.246;7.372;2022-07-10T08:57:16;2.83;;;1.60;;
47429;SDS011;33181;49.246;7.372;2022-07-10T08:59:43;5.20;;;2.20;;
47429;SDS011;33181;49.246;7.372;2022-07-10T09:02:09;6.23;;;2.00;;
47429;SDS011;33181;49.246;7.372;2022-07-10T09:04:35;2.23;;;1.60;;
47429;SDS011;33181;49.246;7.372;2022-07-10T09:07:03;3.73;;;1.77;;
47429;SDS011;33181;49.246;7.372;2022-07-10T09:09:30;2.17;;;1.67;;
47429;SDS011;33181;49.246;7.372;2022-07-10T09:11:56;3.17;;;1.70;;
47429;SDS011;33181;49.246;7.372;2022-07-10T09:14:25;3.30;;;1.50;;
47429;SDS011;33181;49.246;7.372;2022-07-10T09:16:53;3.80;;;1.60;;
47429;SDS011;33181;49.246;7.372;2022-07-10T09:21:50;3.90;;;1.80;;
47429;SDS011;33181;49.246;7.372;2022-07-10T09:24:44;3.13;;;1.60;;
47429;SDS011;33181;49.246;7.372;2022-07-10T09:27:12;2.93;;;1.70;;
47429;SDS011;33181;49.246;7.372;2022-07-10T09:29:50;4.90;;;1.83;;
47429;SDS011;33181;49.246;7.372;2022-07-10T09:32:20;2.47;;;1.73;;
47429;SDS011;33181;49.246;7.372;2022-07-10T09:34:52;4.20;;;1.80;;
47429;SDS011;33181;49.246;7.372;2022-07-10T09:37:38;2.13;;;1.60;;
47429;SDS011;33181;49.246;7.372;2022-07-10T09:40:06;4.37;;;1.60;;
47429;SDS011;33181;49.246;7.372;2022-07-10T09:42:34;3.33;;;1.70;;
47429;SDS011;33181;49.246;7.372;2022-07-10T09:47:38;3.13;;;1.90;;
47429;SDS011;33181;49.246;7.372;2022-07-10T09:50:04;2.97;;;1.80;;
47429;SDS011;33181;49.246;7.372;2022-07-10T09:52:53;3.07;;;1.63;;
47429;SDS011;33181;49.246;7.372;2022-07-10T09:55:30;3.17;;;1.70;;
47429;SDS011;33181;49.246;7.372;2022-07-10T09:58:04;4.23;;;1.70;;
47429;SDS011;33181;49.246;7.372;2022-07-10T10:00:38;2.50;;;1.77;;
47429;SDS011;33181;49.246;7.372;2022-07-10T10:03:06;3.60;;;1.80;;
47429;SDS011;33181;49.246;7.372;2022-07-10T10:05:44;4.00;;;1.90;;
47429;SDS011;33181;49.246;7.372;2022-07-10T10:08:17;3.23;;;1.90;;
47429;SDS011;33181;49.246;7.372;2022-07-10T10:11:02;3.20;;;1.70;;
47429;SDS011;33181;49.246;7.372;2022-07-10T10:13:29;5.33;;;1.57;;
47429;SDS011;33181;49.246;7.372;2022-07-10T10:15:55;6.47;;;2.10;;
47429;SDS011;33181;49.246;7.372;2022-07-10T10:18:23;4.30;;;1.90;;
47429;SDS011;33181;49.246;7.372;2022-07-10T10:20:51;2.63;;;1.70;;
47429;SDS011;33181;49.246;7.372;2022-07-10T10:23:20;4.53;;;1.90;;
47429;SDS011;33181;49.246;7.372;2022-07-10T10:25:48;2.30;;;1.90;;
47429;SDS011;33181;49.246;7.372;2022-07-10T10:28:19;3.60;;;1.80;;
47429;SDS011;33181;49.246;7.372;2022-07-10T10:30:48;4.07;;;2.00;;
47429;SDS011;33181;49.246;7.372;2022-07-10T10:36:08;3.80;;;2.30;;
47429;SDS011;33181;49.246;7.372;2022-07-10T10:41:24;3.40;;;1.90;;
47429;SDS011;33181;49.246;7.372;2022-07-10T10:46:31;3.30;;;2.33;;
47429;SDS011;33181;49.246;7.372;2022-07-10T10:49:04;4.03;;;1.83;;
47429;SDS011;33181;49.246;7.372;2022-07-10T10:57:21;3.27;;;1.73;;
47429;SDS011;33181;49.246;7.372;2022-07-10T11:00:09;2.60;;;1.90;;
47429;SDS011;33181;49.246;7.372;2022-07-10T11:02:39;3.87;;;2.20;;
47429;SDS011;33181;49.246;7.372;2022-07-10T11:07:55;3.50;;;1.80;;
47429;SDS011;33181;49.246;7.372;2022-07-10T11:10:36;4.03;;;2.17;;
47429;SDS011;33181;49.246;7.372;2022-07-10T11:13:19;7.13;;;3.47;;
47429;SDS011;33181;49.246;7.372;2022-07-10T11:15:48;4.23;;;1.90;;
47429;SDS011;33181;49.246;7.372;2022-07-10T11:18:20;4.00;;;2.10;;
47429;SDS011;33181;49.246;7.372;2022-07-10T11:20:53;2.37;;;1.67;;
47429;SDS011;33181;49.246;7.372;2022-07-10T11:26:07;3.10;;;2.00;;
47429;SDS011;33181;49.246;7.372;2022-07-10T11:31:08;3.93;;;2.00;;
47429;SDS011;33181;49.246;7.372;2022-07-10T11:33:41;4.00;;;1.93;;
47429;SDS011;33181;49.246;7.372;2022-07-10T11:36:13;4.83;;;2.20;;
47429;SDS011;33181;49.246;7.372;2022-07-10T11:38:41;3.53;;;2.00;;
47429;SDS011;33181;49.246;7.372;2022-07-10T11:41:18;3.97;;;2.20;;
47429;SDS011;33181;49.246;7.372;2022-07-10T11:43:59;3.90;;;2.10;;
47429;SDS011;33181;49.246;7.372;2022-07-10T11:46:28;2.77;;;2.10;;
47429;SDS011;33181;49.246;7.372;2022-07-10T11:48:59;5.80;;;2.03;;
47429;SDS011;33181;49.246;7.372;2022-07-10T11:51:30;3.90;;;2.50;;
47429;SDS011;33181;49.246;7.372;2022-07-10T11:54:08;4.90;;;2.20;;
47429;SDS011;33181;49.246;7.372;2022-07-10T11:56:41;2.87;;;2.00;;
47429;SDS011;33181;49.246;7.372;2022-07-10T11:59:12;8.43;;;2.10;;
47429;SDS011;33181;49.246;7.372;2022-07-10T12:04:10;4.23;;;2.10;;
47429;SDS011;33181;49.246;7.372;2022-07-10T12:06:38;3.27;;;1.93;;
47429;SDS011;33181;49.246;7.372;2022-07-10T12:09:12;2.47;;;1.80;;
47429;SDS011;33181;49.246;7.372;2022-07-10T12:11:40;3.80;;;2.10;;
47429;SDS011;33181;49.246;7.372;2022-07-10T12:16:46;5.17;;;2.07;;
47429;SDS011;33181;49.246;7.372;2022-07-10T12:19:15;3.90;;;2.20;;
47429;SDS011;33181;49.246;7.372;2022-07-10T12:21:43;3.30;;;2.20;;
47429;SDS011;33181;49.246;7.372;2022-07-10T12:24:11;5.20;;;2.30;;
47429;SDS011;33181;49.246;7.372;2022-07-10T12:26:41;3.53;;;2.20;;
47429;SDS011;33181;49.246;7.372;2022-07-10T12:31:43;4.13;;;2.40;;
47429;SDS011;33181;49.246;7.372;2022-07-10T12:34:10;3.27;;;2.43;;
47429;SDS011;33181;49.246;7.372;2022-07-10T12:36:43;2.80;;;2.20;;
47429;SDS011;33181;49.246;7.372;2022-07-10T12:39:21;4.57;;;2.80;;
47429;SDS011;33181;49.246;7.372;2022-07-10T12:41:56;4.03;;;2.50;;
47429;SDS011;33181;49.246;7.372;2022-07-10T12:44:35;4.90;;;2.60;;
47429;SDS011;33181;49.246;7.372;2022-07-10T12:47:13;6.23;;;2.80;;
47429;SDS011;33181;49.246;7.372;2022-07-10T12:49:57;3.30;;;2.50;;
47429;SDS011;33181;49.246;7.372;2022-07-10T12:52:31;4.60;;;2.80;;
47429;SDS011;33181;49.246;7.372;2022-07-10T12:55:05;3.70;;;2.60;;
47429;SDS011;33181;49.246;7.372;2022-07-10T12:57:48;2.97;;;2.30;;
47429;SDS011;33181;49.246;7.372;2022-07-10T13:00:30;3.30;;;2.20;;
47429;SDS011;33181;49.246;7.372;2022-07-10T13:03:05;2.80;;;2.50;;
47429;SDS011;33181;49.246;7.372;2022-07-10T13:05:38;3.97;;;2.53;;
47429;SDS011;33181;49.246;7.372;2022-07-10T13:10:51;3.60;;;2.50;;
47429;SDS011;33181;49.246;7.372;2022-07-10T13:13:18;4.47;;;2.40;;
47429;SDS011;33181;49.246;7.372;2022-07-10T13:15:45;4.77;;;2.60;;
47429;SDS011;33181;49.246;7.372;2022-07-10T13:18:15;3.23;;;2.30;;
47429;SDS011;33181;49.246;7.372;2022-07-10T13:20:47;2.80;;;2.30;;
47429;SDS011;33181;49.246;7.372;2022-07-10T13:23:15;3.03;;;2.10;;
47429;SDS011;33181;49.246;7.372;2022-07-10T13:25:41;2.87;;;2.50;;
47429;SDS011;33181;49.246;7.372;2022-07-10T13:28:08;5.20;;;2.53;;
47429;SDS011;33181;49.246;7.372;2022-07-10T13:30:36;4.30;;;2.57;;
47429;SDS011;33181;49.246;7.372;2022-07-10T13:33:02;2.93;;;2.17;;
47429;SDS011;33181;49.246;7.372;2022-07-10T13:35:29;2.57;;;2.30;;
47429;SDS011;33181;49.246;7.372;2022-07-10T13:37:56;11.33;;;3.10;;
47429;SDS011;33181;49.246;7.372;2022-07-10T13:40:29;4.93;;;2.30;;
47429;SDS011;33181;49.246;7.372;2022-07-10T13:42:57;5.23;;;2.80;;
47429;SDS011;33181;49.246;7.372;2022-07-10T13:45:23;5.67;;;3.00;;
47429;SDS011;33181;49.246;7.372;2022-07-10T13:47:51;4.57;;;2.53;;
47429;SDS011;33181;49.246;7.372;2022-07-10T13:50:19;4.23;;;2.73;;
47429;SDS011;33181;49.246;7.372;2022-07-10T13:52:46;3.50;;;2.63;;
47429;SDS011;33181;49.246;7.372;2022-07-10T13:55:11;5.80;;;2.87;;
47429;SDS011;33181;49.246;7.372;2022-07-10T13:57:38;3.17;;;2.53;;
47429;SDS011;33181;49.246;7.372;2022-07-10T14:00:04;6.70;;;4.10;;
47429;SDS011;33181;49.246;7.372;2022-07-10T14:02:31;5.90;;;3.10;;
47429;SDS011;33181;49.246;7.372;2022-07-10T14:04:58;4.27;;;2.90;;
47429;SDS011;33181;49.246;7.372;2022-07-10T14:07:24;4.37;;;2.93;;
47429;SDS011;33181;49.246;7.372;2022-07-10T14:09:49;3.80;;;3.13;;
47429;SDS011;33181;49.246;7.372;2022-07-10T14:12:15;3.80;;;3.03;;
47429;SDS011;33181;49.246;7.372;2022-07-10T14:14:41;4.10;;;3.30;;
47429;SDS011;33181;49.246;7.372;2022-07-10T14:17:07;3.70;;;3.10;;
47429;SDS011;33181;49.246;7.372;2022-07-10T14:19:33;5.57;;;2.97;;
47429;SDS011;33181;49.246;7.372;2022-07-10T14:21:59;3.67;;;2.97;;
47429;SDS011;33181;49.246;7.372;2022-07-10T14:24:24;4.73;;;3.20;;
47429;SDS011;33181;49.246;7.372;2022-07-10T14:26:50;4.90;;;3.83;;
47429;SDS011;33181;49.246;7.372;2022-07-10T14:29:18;3.50;;;2.93;;
47429;SDS011;33181;49.246;7.372;2022-07-10T14:31:45;4.73;;;3.20;;
47429;SDS011;33181;49.246;7.372;2022-07-10T14:34:13;6.30;;;3.60;;
47429;SDS011;33181;49.246;7.372;2022-07-10T14:36:49;4.80;;;2.80;;
47429;SDS011;33181;49.246;7.372;2022-07-10T14:39:18;3.43;;;2.70;;
47429;SDS011;33181;49.246;7.372;2022-07-10T14:41:43;3.37;;;2.70;;
47429;SDS011;33181;49.246;7.372;2022-07-10T14:44:09;2.80;;;2.60;;
47429;SDS011;33181;49.246;7.372;2022-07-10T14:46:35;3.17;;;2.80;;
47429;SDS011;33181;49.246;7.372;2022-07-10T14:49:01;3.00;;;2.50;;
47429;SDS011;33181;49.246;7.372;2022-07-10T14:51:27;2.80;;;2.50;;
47429;SDS011;33181;49.246;7.372;2022-07-10T14:53:54;3.30;;;2.40;;
47429;SDS011;33181;49.246;7.372;2022-07-10T14:56:21;2.70;;;2.47;;
47429;SDS011;33181;49.246;7.372;2022-07-10T14:58:48;2.87;;;2.27;;
47429;SDS011;33181;49.246;7.372;2022-07-10T15:01:15;2.53;;;2.10;;
47429;SDS011;33181;49.246;7.372;2022-07-10T15:03:41;3.00;;;2.40;;
47429;SDS011;33181;49.246;7.372;2022-07-10T15:06:07;3.10;;;2.10;;
47429;SDS011;33181;49.246;7.372;2022-07-10T15:08:33;3.67;;;2.20;;
47429;SDS011;33181;49.246;7.372;2022-07-10T15:10:59;4.83;;;2.00;;
47429;SDS011;33181;49.246;7.372;2022-07-10T15:13:26;2.20;;;1.80;;
47429;SDS011;33181;49.246;7.372;2022-07-10T15:15:52;2.93;;;1.90;;
47429;SDS011;33181;49.246;7.372;2022-07-10T15:18:18;2.93;;;1.70;;
47429;SDS011;33181;49.246;7.372;2022-07-10T15:20:44;2.97;;;2.20;;
47429;SDS011;33181;49.246;7.372;2022-07-10T15:23:10;2.50;;;2.20;;
47429;SDS011;33181;49.246;7.372;2022-07-10T15:25:37;3.03;;;2.10;;
47429;SDS011;33181;49.246;7.372;2022-07-10T15:28:05;2.67;;;1.90;;
47429;SDS011;33181;49.246;7.372;2022-07-10T15:30:32;2.73;;;2.00;;
47429;SDS011;33181;49.246;7.372;2022-07-10T15:32:59;2.50;;;2.00;;